Time;durP1;ratioP1;P1;durP2;ratioP2;P2;SDS_P1;SDS_P2;PMS_P1;PMS_P2;Temp;Humidity;BMP_temperature;BMP_pressure;BME280_temperature;BME280_humidity;BME280_pressure;Samples;Min_cycle;Max_cycle;Signal;HPM_P1;HPM_P2
2022/12/21 00:00:47;;;;;;;;;12.25;11.75;;;;;-147.17;100.00;-15917.19;4966703;28;51201;-58
2022/12/21 00:03:12;;;;;;;;;12.00;10.50;;;;;-147.17;100.00;-15917.19;4966157;28;53022;-59
2022/12/21 00:05:39;;;;;;;;;12.75;11.00;;;;;-147.17;100.00;-15917.19;4984496;28;52727;-60
2022/12/21 00:08:04;;;;;;;;;11.75;11.00;;;;;-147.17;100.00;-15917.19;4985676;28;51291;-58
2022/12/21 00:10:29;;;;;;;;;11.75;11.50;;;;;-147.17;100.00;-15917.19;4987183;28;50919;-58
2022/12/21 00:12:55;;;;;;;;;10.00;10.00;;;;;-147.17;100.00;-15917.19;4984193;28;52803;-58
2022/12/21 00:15:20;;;;;;;;;10.25;10.25;;;;;-147.17;100.00;-15917.19;4985852;28;51325;-59
2022/12/21 00:17:45;;;;;;;;;12.00;7.75;;;;;-147.17;100.00;-15917.19;4971101;28;51878;-59
2022/12/21 00:20:11;;;;;;;;;12.75;11.75;;;;;-147.17;100.00;-15917.19;4984514;28;51191;-59
2022/12/21 00:22:36;;;;;;;;;8.25;8.25;;;;;-147.17;100.00;-15917.19;4984153;28;51827;-59
2022/12/21 00:25:02;;;;;;;;;10.25;9.25;;;;;-147.17;100.00;-15917.19;4987452;28;51114;-60
2022/12/21 00:27:27;;;;;;;;;11.33;11.00;;;;;-147.17;100.00;-15917.19;4986803;28;51078;-59
2022/12/21 00:29:52;;;;;;;;;7.25;7.00;;;;;-147.17;100.00;-15917.19;4986020;28;51383;-60
2022/12/21 00:32:19;;;;;;;;;7.00;6.00;;;;;-147.17;100.00;-15917.19;4982304;28;51185;-59
2022/12/21 00:34:44;;;;;;;;;13.75;11.50;;;;;-147.17;100.00;-15917.19;4981386;28;51315;-59
2022/12/21 00:37:10;;;;;;;;;10.25;9.75;;;;;-147.17;100.00;-15917.19;4968604;28;51256;-60
2022/12/21 00:39:35;;;;;;;;;9.25;9.00;;;;;-147.17;100.00;-15917.19;4985219;28;51252;-59
2022/12/21 00:42:00;;;;;;;;;8.00;7.33;;;;;-147.17;100.00;-15917.19;4983737;28;52310;-58
2022/12/21 00:44:26;;;;;;;;;10.75;10.75;;;;;-147.17;100.00;-15917.19;4982602;28;51292;-59
2022/12/21 00:46:51;;;;;;;;;12.25;12.25;;;;;-147.17;100.00;-15917.19;4989359;28;51416;-58
2022/12/21 00:49:16;;;;;;;;;10.50;9.25;;;;;-147.17;100.00;-15917.19;4992100;28;51277;-59
2022/12/21 00:51:42;;;;;;;;;8.33;8.33;;;;;-147.17;100.00;-15917.19;4998211;28;51723;-59
2022/12/21 00:54:08;;;;;;;;;9.50;9.50;;;;;-147.17;100.00;-15917.19;4989165;28;51125;-59
2022/12/21 00:56:33;;;;;;;;;10.50;9.25;;;;;-147.17;100.00;-15917.19;4981436;28;51179;-58
2022/12/21 00:58:59;;;;;;;;;8.67;8.00;;;;;-147.17;100.00;-15917.19;5001255;28;51280;-58
2022/12/21 01:01:30;;;;;;;;;12.00;11.00;;;;;-147.17;100.00;-15917.19;4979587;28;51718;-58
2022/12/21 01:03:56;;;;;;;;;11.00;10.25;;;;;-147.17;100.00;-15917.19;4983954;28;51113;-59
2022/12/21 01:06:24;;;;;;;;;9.25;9.25;;;;;-147.17;100.00;-15917.19;4981629;28;51209;-58
2022/12/21 01:08:50;;;;;;;;;13.00;12.00;;;;;-147.17;100.00;-15917.19;4983548;28;51084;-58
2022/12/21 01:11:17;;;;;;;;;12.75;12.00;;;;;-147.17;100.00;-15917.19;4990277;28;52830;-58
2022/12/21 01:13:44;;;;;;;;;11.00;9.25;;;;;-147.17;100.00;-15917.19;4979567;28;50965;-58
2022/12/21 01:16:28;;;;;;;;;11.50;8.25;;;;;-147.17;100.00;-15917.19;4971379;28;51202;-59
2022/12/21 01:18:54;;;;;;;;;8.00;8.00;;;;;-147.17;100.00;-15917.19;4990406;28;51313;-58
2022/12/21 01:21:28;;;;;;;;;10.00;8.00;;;;;-147.17;100.00;-15917.19;4999509;28;51834;-59
2022/12/21 01:23:55;;;;;;;;;9.00;8.67;;;;;-147.17;100.00;-15917.19;4992792;28;51157;-59
2022/12/21 01:26:21;;;;;;;;;12.50;12.00;;;;;-147.17;100.00;-15917.19;4990540;28;51184;-59
2022/12/21 01:28:47;;;;;;;;;6.00;5.00;;;;;-147.17;100.00;-15917.19;4995289;28;51473;-59
2022/12/21 01:31:13;;;;;;;;;8.75;8.50;;;;;-147.17;100.00;-15917.19;4995619;28;51258;-58
2022/12/21 01:33:39;;;;;;;;;6.50;6.50;;;;;-147.17;100.00;-15917.19;4993774;28;51188;-58
2022/12/21 01:36:07;;;;;;;;;8.00;7.00;;;;;-147.17;100.00;-15917.19;4993628;28;51341;-59
2022/12/21 01:38:33;;;;;;;;;7.00;6.00;;;;;-147.17;100.00;-15917.19;4990483;28;51245;-58
2022/12/21 01:40:58;;;;;;;;;7.00;7.00;;;;;-147.17;100.00;-15917.19;4987574;28;51168;-58
2022/12/21 01:43:44;;;;;;;;;10.00;7.50;;;;;-147.17;100.00;-15917.19;4994976;28;50881;-59
2022/12/21 01:46:14;;;;;;;;;8.00;6.50;;;;;-147.17;100.00;-15917.19;4989727;28;51097;-59
2022/12/21 01:48:45;;;;;;;;;8.33;8.00;;;;;-147.17;100.00;-15917.19;4974851;28;51203;-58
2022/12/21 01:51:12;;;;;;;;;11.00;9.25;;;;;-147.17;100.00;-15917.19;4990030;28;51300;-59
2022/12/21 01:53:43;;;;;;;;;10.50;8.75;;;;;-147.17;100.00;-15917.19;4985953;28;51242;-58
2022/12/21 01:56:12;;;;;;;;;7.50;7.25;;;;;-147.17;100.00;-15917.19;4999525;28;51094;-58
2022/12/21 01:58:39;;;;;;;;;10.50;8.75;;;;;-147.17;100.00;-15917.19;4989638;28;51278;-58
2022/12/21 02:01:06;;;;;;;;;8.25;8.25;;;;;-147.17;100.00;-15917.19;4968648;28;53099;-59
2022/12/21 02:03:43;;;;;;;;;7.25;6.50;;;;;-147.17;100.00;-15917.19;4990145;28;52519;-58
2022/12/21 02:06:12;;;;;;;;;7.00;6.00;;;;;-147.17;100.00;-15917.19;4983481;28;51256;-58
2022/12/21 02:08:40;;;;;;;;;7.00;6.00;;;;;-147.17;100.00;-15917.19;4989212;28;51350;-59
2022/12/21 02:11:06;;;;;;;;;8.00;8.00;;;;;-147.17;100.00;-15917.19;4991375;28;51829;-58
2022/12/21 02:13:32;;;;;;;;;6.00;6.00;;;;;-147.17;100.00;-15917.19;4998448;28;51089;-58
2022/12/21 02:16:00;;;;;;;;;8.00;7.00;;;;;-147.17;100.00;-15917.19;4989384;28;50924;-58
2022/12/21 02:18:34;;;;;;;;;7.00;6.00;;;;;-147.17;100.00;-15917.19;4992242;28;51074;-60
2022/12/21 02:21:22;;;;;;;;;6.33;6.33;;;;;-147.17;100.00;-15917.19;4989041;28;51014;-60
2022/12/21 02:24:12;;;;;;;;;5.67;5.67;;;;;-147.17;100.00;-15917.19;4986530;28;51353;-59
2022/12/21 02:26:56;;;;;;;;;6.33;6.00;;;;;-147.17;100.00;-15917.19;4988765;28;51050;-59
2022/12/21 02:29:52;;;;;;;;;5.67;5.00;;;;;-147.17;100.00;-15917.19;4993105;28;51217;-58
2022/12/21 02:32:39;;;;;;;;;4.00;4.00;;;;;-147.17;100.00;-15917.19;4994411;28;51821;-58
2022/12/21 02:35:16;;;;;;;;;4.33;4.33;;;;;-147.17;100.00;-15917.19;4994486;28;51194;-59
2022/12/21 02:37:45;;;;;;;;;4.00;4.00;;;;;-147.17;100.00;-15917.19;4981309;28;51666;-58
2022/12/21 02:40:31;;;;;;;;;3.67;3.67;;;;;-147.17;100.00;-15917.19;4984600;28;51388;-59
2022/12/21 02:46:38;;;;;;;;;3.00;2.67;;;;;-147.17;100.00;-15917.19;4948099;28;51988;-60
2022/12/21 02:49:09;;;;;;;;;3.67;3.00;;;;;-147.17;100.00;-15917.19;4996537;28;51215;-59
2022/12/21 02:51:51;;;;;;;;;3.00;3.00;;;;;-147.17;100.00;-15917.19;4993791;28;51151;-59
2022/12/21 02:54:17;;;;;;;;;4.00;4.00;;;;;-147.17;100.00;-15917.19;4989373;28;51246;-59
2022/12/21 02:56:43;;;;;;;;;3.00;3.00;;;;;-147.17;100.00;-15917.19;4983179;28;51149;-59
2022/12/21 02:59:11;;;;;;;;;3.00;3.00;;;;;-147.17;100.00;-15917.19;4986707;28;51489;-60
2022/12/21 03:02:01;;;;;;;;;2.00;2.00;;;;;-147.17;100.00;-15917.19;4993866;28;51529;-57
2022/12/21 03:04:58;;;;;;;;;1.33;1.00;;;;;-147.17;100.00;-15917.19;4996435;28;51853;-59
2022/12/21 03:07:47;;;;;;;;;0.00;0.00;;;;;-147.17;100.00;-15917.19;5006862;28;51116;-59
2022/12/21 03:10:53;;;;;;;;;1.00;1.00;;;;;-147.17;100.00;-15917.19;4993842;28;51429;-59
2022/12/21 03:13:50;;;;;;;;;0.33;0.33;;;;;-147.17;100.00;-15917.19;4975806;28;51178;-59
2022/12/21 03:16:34;;;;;;;;;1.00;1.00;;;;;-147.17;100.00;-15917.19;4990520;28;51129;-59
2022/12/21 03:19:11;;;;;;;;;1.00;1.00;;;;;-147.17;100.00;-15917.19;4984951;28;51247;-59
2022/12/21 03:21:46;;;;;;;;;1.00;1.00;;;;;-147.17;100.00;-15917.19;4986111;28;51233;-60
2022/12/21 03:24:34;;;;;;;;;0.33;0.33;;;;;-147.17;100.00;-15917.19;4988820;28;51326;-58
2022/12/21 03:27:15;;;;;;;;;0.67;0.67;;;;;-147.17;100.00;-15917.19;4993839;28;52046;-58
2022/12/21 03:29:47;;;;;;;;;1.00;1.00;;;;;-147.17;100.00;-15917.19;4994213;28;51037;-58
2022/12/21 03:32:19;;;;;;;;;1.00;1.00;;;;;-147.17;100.00;-15917.19;5005275;28;51158;-58
2022/12/21 03:34:49;;;;;;;;;0.00;0.00;;;;;-147.17;100.00;-15917.19;4984620;28;51117;-58
2022/12/21 03:37:22;;;;;;;;;1.00;1.00;;;;;-147.17;100.00;-15917.19;4982455;28;51681;-58
2022/12/21 03:39:56;;;;;;;;;1.00;1.00;;;;;-147.17;100.00;-15917.19;4981646;28;51103;-59
2022/12/21 03:42:43;;;;;;;;;0.67;0.67;;;;;-147.17;100.00;-15917.19;4982850;28;51266;-61
2022/12/21 03:45:12;;;;;;;;;1.00;1.00;;;;;-147.17;100.00;-15917.19;4991979;28;51296;-58
2022/12/21 03:48:18;;;;;;;;;2.00;2.00;;;;;-147.17;100.00;-15917.19;5000569;28;52835;-59
2022/12/21 03:50:49;;;;;;;;;0.67;0.67;;;;;-147.17;100.00;-15917.19;4996087;28;51191;-59
2022/12/21 03:53:49;;;;;;;;;1.00;1.00;;;;;-147.17;100.00;-15917.19;4985142;28;51279;-59
2022/12/21 03:56:23;;;;;;;;;2.00;2.00;;;;;-147.17;100.00;-15917.19;4998566;28;51345;-59
2022/12/21 03:58:49;;;;;;;;;2.33;2.33;;;;;-147.17;100.00;-15917.19;4983010;28;51132;-59
2022/12/21 04:01:34;;;;;;;;;1.33;1.00;;;;;-147.17;100.00;-15917.19;4995216;28;51236;-59
2022/12/21 04:04:08;;;;;;;;;1.00;1.00;;;;;-147.17;100.00;-15917.19;4988710;28;51095;-58
2022/12/21 04:06:36;;;;;;;;;2.00;1.00;;;;;-147.17;100.00;-15917.19;5003303;28;50868;-59
2022/12/21 04:09:04;;;;;;;;;1.00;1.00;;;;;-147.17;100.00;-15917.19;4994652;28;51171;-59
2022/12/21 04:14:21;;;;;;;;;1.67;1.67;;;;;-147.17;100.00;-15917.19;4989174;28;51521;-59
2022/12/21 04:16:46;;;;;;;;;1.00;1.00;;;;;-147.17;100.00;-15917.19;4975959;28;51457;-59
2022/12/21 04:21:56;;;;;;;;;0.33;0.33;;;;;-147.17;100.00;-15917.19;4992531;28;51039;-59
2022/12/21 04:29:49;;;;;;;;;2.00;2.00;;;;;-147.17;100.00;-15917.19;4983330;28;51439;-59
2022/12/21 04:32:15;;;;;;;;;0.67;0.67;;;;;-147.17;100.00;-15917.19;4992240;28;51022;-59
2022/12/21 04:34:40;;;;;;;;;0.00;0.00;;;;;-147.17;100.00;-15917.19;4982719;28;50886;-59
2022/12/21 04:39:49;;;;;;;;;0.00;0.00;;;;;-147.17;100.00;-15917.19;4990581;28;50888;-59
2022/12/21 04:42:14;;;;;;;;;1.67;0.33;;;;;-147.17;100.00;-15917.19;5010068;28;51031;-59
2022/12/21 04:44:40;;;;;;;;;1.00;1.00;;;;;-147.17;100.00;-15917.19;4988892;28;51362;-59
2022/12/21 04:47:05;;;;;;;;;0.67;0.67;;;;;-147.17;100.00;-15917.19;5004913;28;51379;-59
2022/12/21 04:49:30;;;;;;;;;0.00;0.00;;;;;-147.17;100.00;-15917.19;4989832;28;51703;-59
2022/12/21 04:51:56;;;;;;;;;0.00;0.00;;;;;-147.17;100.00;-15917.19;4986459;28;51183;-58
2022/12/21 04:54:21;;;;;;;;;1.67;1.00;;;;;-147.17;100.00;-15917.19;4993759;28;51136;-59
2022/12/21 04:56:46;;;;;;;;;0.00;0.00;;;;;-147.17;100.00;-15917.19;5005927;28;51128;-59
2022/12/21 04:59:12;;;;;;;;;0.67;0.67;;;;;-147.17;100.00;-15917.19;4996072;28;51617;-58
2022/12/21 05:01:37;;;;;;;;;0.33;0.33;;;;;-147.17;100.00;-15917.19;4998916;28;51152;-58
2022/12/21 05:04:05;;;;;;;;;2.00;1.67;;;;;-147.17;100.00;-15917.19;4995468;28;51268;-58
2022/12/21 05:06:31;;;;;;;;;1.00;1.00;;;;;-147.17;100.00;-15917.19;4987885;28;53074;-59
2022/12/21 05:08:57;;;;;;;;;0.00;0.00;;;;;-147.17;100.00;-15917.19;4995352;28;51002;-60
2022/12/21 05:11:24;;;;;;;;;1.00;1.00;;;;;-147.17;100.00;-15917.19;4995172;28;50959;-59
2022/12/21 05:13:50;;;;;;;;;0.00;0.00;;;;;-147.17;100.00;-15917.19;4993625;28;51003;-58
2022/12/21 05:16:19;;;;;;;;;1.00;1.00;;;;;-147.17;100.00;-15917.19;4993335;28;51072;-58
2022/12/21 05:18:45;;;;;;;;;2.00;1.33;;;;;-147.17;100.00;-15917.19;4995789;28;51263;-59
2022/12/21 05:21:11;;;;;;;;;0.00;0.00;;;;;-147.17;100.00;-15917.19;4994818;28;51095;-59
2022/12/21 05:23:37;;;;;;;;;1.00;1.00;;;;;-147.17;100.00;-15917.19;4993039;28;51009;-60
2022/12/21 05:26:04;;;;;;;;;1.00;1.00;;;;;-147.17;100.00;-15917.19;4990548;28;51130;-59
2022/12/21 05:28:29;;;;;;;;;1.00;1.00;;;;;-147.17;100.00;-15917.19;4989435;28;52253;-59
2022/12/21 05:30:55;;;;;;;;;0.67;0.67;;;;;-147.17;100.00;-15917.19;4981723;28;51223;-59
2022/12/21 05:33:20;;;;;;;;;1.00;1.00;;;;;-147.17;100.00;-15917.19;4995255;28;51387;-59
2022/12/21 05:35:45;;;;;;;;;0.67;0.67;;;;;-147.17;100.00;-15917.19;4998436;28;51202;-64
2022/12/21 05:38:11;;;;;;;;;1.00;1.00;;;;;-147.17;100.00;-15917.19;4998447;28;52151;-59
2022/12/21 05:40:36;;;;;;;;;1.00;1.00;;;;;-147.17;100.00;-15917.19;4975140;28;51191;-60
2022/12/21 05:43:03;;;;;;;;;2.00;2.00;;;;;-147.17;100.00;-15917.19;4992974;28;51258;-59
2022/12/21 05:45:29;;;;;;;;;1.33;1.00;;;;;-147.17;100.00;-15917.19;4994040;28;51152;-59
2022/12/21 05:47:54;;;;;;;;;1.00;1.00;;;;;-147.17;100.00;-15917.19;4983380;28;51350;-59
2022/12/21 05:50:20;;;;;;;;;0.67;0.00;;;;;-147.17;100.00;-15917.19;4997211;28;51054;-59
2022/12/21 05:52:45;;;;;;;;;1.00;1.00;;;;;-147.17;100.00;-15917.19;4994134;28;51035;-59
2022/12/21 05:55:10;;;;;;;;;0.33;0.33;;;;;-147.17;100.00;-15917.19;4986467;28;51029;-59
2022/12/21 05:57:36;;;;;;;;;0.67;0.67;;;;;-147.17;100.00;-15917.19;4979645;28;53017;-58
2022/12/21 06:00:02;;;;;;;;;1.67;1.00;;;;;-147.17;100.00;-15917.19;4985845;28;51272;-58
2022/12/21 06:02:28;;;;;;;;;2.00;1.00;;;;;-147.17;100.00;-15917.19;4974275;28;51212;-59
2022/12/21 06:04:53;;;;;;;;;0.67;0.67;;;;;-147.17;100.00;-15917.19;4994968;28;51022;-59
2022/12/21 06:07:18;;;;;;;;;3.00;1.67;;;;;-147.17;100.00;-15917.19;4989865;28;51081;-59
2022/12/21 06:09:44;;;;;;;;;0.33;0.33;;;;;-147.17;100.00;-15917.19;4991788;28;51161;-58
2022/12/21 06:12:09;;;;;;;;;1.00;1.00;;;;;-147.17;100.00;-15917.19;4991859;28;51189;-58
2022/12/21 06:14:35;;;;;;;;;1.00;1.00;;;;;-147.17;100.00;-15917.19;4988469;28;51008;-60
2022/12/21 06:17:00;;;;;;;;;3.00;2.33;;;;;-147.17;100.00;-15917.19;4970856;28;51783;-58
2022/12/21 06:19:25;;;;;;;;;1.00;1.00;;;;;-147.17;100.00;-15917.19;4994688;28;50908;-58
2022/12/21 06:21:51;;;;;;;;;2.00;2.00;;;;;-147.17;100.00;-15917.19;4994003;28;51638;-58
2022/12/21 06:24:16;;;;;;;;;1.00;1.00;;;;;-147.17;100.00;-15917.19;4981034;28;51275;-61
2022/12/21 06:26:41;;;;;;;;;1.00;1.00;;;;;-147.17;100.00;-15917.19;4994079;28;51807;-59
2022/12/21 06:29:06;;;;;;;;;4.00;3.00;;;;;-147.17;100.00;-15917.19;4973381;28;51216;-60
2022/12/21 06:31:32;;;;;;;;;2.00;2.00;;;;;-147.17;100.00;-15917.19;4977429;28;51280;-59
2022/12/21 06:33:57;;;;;;;;;1.33;1.00;;;;;-147.17;100.00;-15917.19;4994493;28;51058;-59
2022/12/21 06:36:23;;;;;;;;;2.00;2.00;;;;;-147.17;100.00;-15917.19;4998063;28;51125;-58
2022/12/21 06:38:48;;;;;;;;;3.00;2.00;;;;;-147.17;100.00;-15917.19;4999196;28;51216;-58
2022/12/21 06:41:15;;;;;;;;;3.00;2.00;;;;;-147.17;100.00;-15917.19;5006177;28;51233;-58
2022/12/21 06:43:42;;;;;;;;;2.00;2.00;;;;;-147.17;100.00;-15917.19;4998226;28;51090;-58
2022/12/21 06:46:10;;;;;;;;;2.00;2.00;;;;;-147.17;100.00;-15917.19;4983043;28;51871;-59
2022/12/21 06:48:36;;;;;;;;;2.00;1.67;;;;;-147.17;100.00;-15917.19;4995045;28;51138;-59
2022/12/21 06:51:08;;;;;;;;;2.00;2.00;;;;;-147.17;100.00;-15917.19;4994295;28;51210;-59
2022/12/21 06:53:36;;;;;;;;;5.33;4.67;;;;;-147.17;100.00;-15917.19;4988012;28;51389;-57
2022/12/21 06:56:09;;;;;;;;;3.33;2.33;;;;;-147.17;100.00;-15917.19;4979417;28;51934;-58
2022/12/21 06:58:35;;;;;;;;;4.00;4.00;;;;;-147.17;100.00;-15917.19;4986273;28;51392;-58
2022/12/21 07:01:09;;;;;;;;;2.67;2.67;;;;;-147.17;100.00;-15917.19;4983924;28;51376;-58
2022/12/21 07:03:34;;;;;;;;;4.00;4.00;;;;;-147.17;100.00;-15917.19;4976796;28;51173;-58
2022/12/21 07:06:01;;;;;;;;;2.00;2.00;;;;;-147.17;100.00;-15917.19;4994163;28;52007;-58
2022/12/21 07:08:26;;;;;;;;;2.33;2.00;;;;;-147.17;100.00;-15917.19;4993756;28;51115;-58
2022/12/21 07:10:59;;;;;;;;;2.33;2.33;;;;;-147.17;100.00;-15917.19;4989100;28;51346;-58
2022/12/21 07:13:26;;;;;;;;;4.67;4.00;;;;;-147.17;100.00;-15917.19;4994217;28;51339;-57
2022/12/21 07:15:52;;;;;;;;;3.00;3.00;;;;;-147.17;100.00;-15917.19;4964137;28;51350;-58
2022/12/21 07:18:17;;;;;;;;;3.00;3.00;;;;;-147.17;100.00;-15917.19;4965006;28;51188;-58
2022/12/21 07:20:43;;;;;;;;;3.67;3.33;;;;;-147.17;100.00;-15917.19;4993132;28;51009;-57
2022/12/21 07:23:08;;;;;;;;;5.00;5.00;;;;;-147.17;100.00;-15917.19;4980692;28;51031;-57
2022/12/21 07:25:34;;;;;;;;;5.00;4.67;;;;;-147.17;100.00;-15917.19;4992582;28;51100;-57
2022/12/21 07:27:59;;;;;;;;;4.67;4.00;;;;;-147.17;100.00;-15917.19;4985390;28;51137;-58
2022/12/21 07:30:25;;;;;;;;;3.33;3.33;;;;;-147.17;100.00;-15917.19;4981792;28;51126;-59
2022/12/21 07:32:53;;;;;;;;;5.00;4.67;;;;;-147.17;100.00;-15917.19;4980158;28;51313;-58
2022/12/21 07:35:21;;;;;;;;;5.67;5.00;;;;;-147.17;100.00;-15917.19;4981433;28;51939;-58
2022/12/21 07:37:47;;;;;;;;;7.75;6.50;;;;;-147.17;100.00;-15917.19;4992499;28;51142;-58
2022/12/21 07:40:15;;;;;;;;;3.00;3.00;;;;;-147.17;100.00;-15917.19;4992733;28;51135;-58
2022/12/21 07:42:41;;;;;;;;;6.00;4.00;;;;;-147.17;100.00;-15917.19;4976734;28;51435;-58
2022/12/21 07:45:07;;;;;;;;;4.67;4.67;;;;;-147.17;100.00;-15917.19;4971805;28;52764;-59
2022/12/21 07:47:33;;;;;;;;;9.50;9.50;;;;;-147.17;100.00;-15917.19;4990578;28;51262;-59
2022/12/21 07:49:58;;;;;;;;;8.50;8.00;;;;;-147.17;100.00;-15917.19;4987503;28;51579;-58
2022/12/21 07:52:24;;;;;;;;;7.75;7.25;;;;;-147.17;100.00;-15917.19;4992243;28;51098;-58
2022/12/21 07:54:49;;;;;;;;;8.67;7.33;;;;;-147.17;100.00;-15917.19;4985327;28;51102;-57
2022/12/21 07:57:15;;;;;;;;;7.33;7.00;;;;;-147.17;100.00;-15917.19;4990376;28;50956;-59
2022/12/21 07:59:41;;;;;;;;;4.00;4.00;;;;;-147.17;100.00;-15917.19;4983749;28;51391;-59
2022/12/21 08:02:07;;;;;;;;;8.00;6.33;;;;;-147.17;100.00;-15917.19;4946524;28;51492;-58
2022/12/21 08:04:33;;;;;;;;;10.00;8.25;;;;;-147.17;100.00;-15917.19;4966138;28;51803;-58
2022/12/21 08:06:58;;;;;;;;;4.00;4.00;;;;;-147.17;100.00;-15917.19;4990109;28;51117;-58
2022/12/21 08:09:23;;;;;;;;;6.33;6.00;;;;;-147.17;100.00;-15917.19;4983165;28;51135;-58
2022/12/21 08:11:49;;;;;;;;;6.75;6.25;;;;;-147.17;100.00;-15917.19;4959028;28;51409;-58
2022/12/21 08:14:15;;;;;;;;;5.00;4.75;;;;;-147.17;100.00;-15917.19;4980911;28;51165;-58
2022/12/21 08:16:41;;;;;;;;;7.00;5.00;;;;;-147.17;100.00;-15917.19;4987977;28;51204;-59
2022/12/21 08:19:06;;;;;;;;;8.00;7.00;;;;;-147.17;100.00;-15917.19;4981408;28;51263;-58
2022/12/21 08:21:31;;;;;;;;;7.00;5.00;;;;;-147.17;100.00;-15917.19;4988763;28;51106;-58
2022/12/21 08:23:57;;;;;;;;;8.33;7.67;;;;;-147.17;100.00;-15917.19;4989594;28;51672;-58
2022/12/21 08:26:22;;;;;;;;;6.67;6.67;;;;;-147.17;100.00;-15917.19;4997380;28;51145;-57
2022/12/21 08:28:48;;;;;;;;;5.00;4.00;;;;;-147.17;100.00;-15917.19;4997189;28;51308;-58
2022/12/21 08:31:18;;;;;;;;;7.33;7.33;;;;;-147.17;100.00;-15917.19;4998697;28;51010;-58
2022/12/21 08:33:45;;;;;;;;;8.00;6.67;;;;;-147.17;100.00;-15917.19;4995039;28;51338;-58
2022/12/21 08:36:20;;;;;;;;;7.00;6.33;;;;;-147.17;100.00;-15917.19;4998528;28;51330;-58
2022/12/21 08:38:46;;;;;;;;;6.33;6.33;;;;;-147.17;100.00;-15917.19;4983493;28;50955;-59
2022/12/21 08:41:11;;;;;;;;;8.00;8.00;;;;;-147.17;100.00;-15917.19;4999022;28;51075;-58
2022/12/21 08:43:37;;;;;;;;;8.00;6.67;;;;;-147.17;100.00;-15917.19;4993586;28;52045;-58
2022/12/21 08:46:05;;;;;;;;;8.33;6.33;;;;;-147.17;100.00;-15917.19;4985213;28;51116;-58
2022/12/21 08:48:30;;;;;;;;;6.33;6.33;;;;;-147.17;100.00;-15917.19;4978112;28;51372;-58
2022/12/21 08:50:56;;;;;;;;;8.50;8.00;;;;;-147.17;100.00;-15917.19;4989610;28;51070;-58
2022/12/21 08:53:21;;;;;;;;;5.33;4.33;;;;;-147.17;100.00;-15917.19;4977500;28;52008;-58
2022/12/21 08:55:48;;;;;;;;;8.67;8.00;;;;;-147.17;100.00;-15917.19;4989562;28;51087;-58
2022/12/21 08:58:14;;;;;;;;;5.00;5.00;;;;;-147.17;100.00;-15917.19;4996985;28;51130;-58
2022/12/21 09:00:42;;;;;;;;;5.00;5.00;;;;;-147.17;100.00;-15917.19;4988519;28;51086;-58
2022/12/21 09:03:08;;;;;;;;;6.00;6.00;;;;;-147.17;100.00;-15917.19;4990802;28;53765;-57
2022/12/21 09:05:34;;;;;;;;;5.00;4.33;;;;;-147.17;100.00;-15917.19;4983759;28;51158;-58
2022/12/21 09:08:00;;;;;;;;;7.33;6.33;;;;;-147.17;100.00;-15917.19;4994393;28;51183;-58
2022/12/21 09:10:25;;;;;;;;;8.00;8.00;;;;;-147.17;100.00;-15917.19;4971261;28;51154;-58
2022/12/21 09:12:51;;;;;;;;;5.00;5.00;;;;;-147.17;100.00;-15917.19;4986475;28;51405;-57
2022/12/21 09:15:16;;;;;;;;;9.00;9.00;;;;;-147.17;100.00;-15917.19;4970981;28;50925;-57
2022/12/21 09:17:42;;;;;;;;;20.25;18.25;;;;;-147.17;100.00;-15917.19;4988425;28;51430;-57
2022/12/21 09:20:08;;;;;;;;;5.67;4.67;;;;;-147.17;100.00;-15917.19;4997152;28;51402;-56
2022/12/21 09:22:34;;;;;;;;;5.00;5.00;;;;;-147.17;100.00;-15917.19;4983753;28;51414;-58
2022/12/21 09:24:59;;;;;;;;;5.00;4.67;;;;;-147.17;100.00;-15917.19;4996074;28;51061;-58
2022/12/21 09:27:25;;;;;;;;;4.33;3.67;;;;;-147.17;100.00;-15917.19;4984137;28;51568;-57
2022/12/21 09:29:50;;;;;;;;;5.33;5.00;;;;;-147.17;100.00;-15917.19;4984056;28;50980;-58
2022/12/21 09:32:16;;;;;;;;;9.67;8.00;;;;;-147.17;100.00;-15917.19;4987476;28;51797;-59
2022/12/21 09:34:41;;;;;;;;;6.00;5.00;;;;;-147.17;100.00;-15917.19;4970914;28;51198;-58
2022/12/21 09:37:07;;;;;;;;;6.00;5.67;;;;;-147.17;100.00;-15917.19;4989997;28;51202;-58
2022/12/21 09:39:32;;;;;;;;;6.00;5.00;;;;;-147.17;100.00;-15917.19;4975886;28;51250;-57
2022/12/21 09:42:04;;;;;;;;;6.00;6.00;;;;;-147.17;100.00;-15917.19;4987059;28;52125;-58
2022/12/21 09:44:36;;;;;;;;;5.67;4.00;;;;;-147.17;100.00;-15917.19;4994298;28;51044;-58
2022/12/21 09:47:05;;;;;;;;;4.67;4.67;;;;;-147.17;100.00;-15917.19;4988771;28;51260;-58
2022/12/21 09:49:43;;;;;;;;;8.00;4.00;;;;;-147.17;100.00;-15917.19;4990771;28;51348;-57
2022/12/21 09:52:21;;;;;;;;;6.00;5.33;;;;;-147.17;100.00;-15917.19;4960369;28;53029;-58
2022/12/21 09:55:00;;;;;;;;;6.00;6.00;;;;;-147.17;100.00;-15917.19;4978449;28;51218;-58
2022/12/21 09:57:31;;;;;;;;;8.67;6.00;;;;;-147.17;100.00;-15917.19;4987296;28;51261;-58
2022/12/21 09:59:56;;;;;;;;;8.67;8.00;;;;;-147.17;100.00;-15917.19;4989585;28;51031;-58
2022/12/21 10:02:37;;;;;;;;;6.33;4.67;;;;;-147.17;100.00;-15917.19;4984362;28;52806;-59
2022/12/21 10:05:33;;;;;;;;;5.00;4.33;;;;;-147.17;100.00;-15917.19;4991815;28;51058;-59
2022/12/21 10:08:01;;;;;;;;;6.00;6.00;;;;;-147.17;100.00;-15917.19;4992830;28;51213;-58
2022/12/21 10:10:31;;;;;;;;;5.00;5.00;;;;;-147.17;100.00;-15917.19;4991184;28;51473;-58
2022/12/21 10:13:11;;;;;;;;;5.00;5.00;;;;;-147.17;100.00;-15917.19;4989883;28;51070;-59
2022/12/21 10:16:00;;;;;;;;;5.33;5.00;;;;;-147.17;100.00;-15917.19;4985726;28;51027;-58
2022/12/21 10:18:40;;;;;;;;;4.33;3.33;;;;;-147.17;100.00;-15917.19;4956567;28;51065;-59
2022/12/21 10:21:32;;;;;;;;;6.00;5.33;;;;;-147.17;100.00;-15917.19;4986875;28;51094;-59
2022/12/21 10:23:58;;;;;;;;;4.00;4.00;;;;;-147.17;100.00;-15917.19;4987451;28;52277;-58
2022/12/21 10:26:27;;;;;;;;;5.00;5.00;;;;;-147.17;100.00;-15917.19;4980248;28;51150;-59
2022/12/21 10:29:05;;;;;;;;;5.00;5.00;;;;;-147.17;100.00;-15917.19;4984742;28;51224;-59
2022/12/21 10:31:33;;;;;;;;;5.67;5.67;;;;;-147.17;100.00;-15917.19;4989253;28;51333;-58
2022/12/21 10:34:00;;;;;;;;;3.67;2.00;;;;;-147.17;100.00;-15917.19;4986930;28;52921;-58
2022/12/21 10:36:35;;;;;;;;;7.33;7.33;;;;;-147.17;100.00;-15917.19;4985992;28;51118;-57
2022/12/21 10:39:02;;;;;;;;;7.33;7.33;;;;;-147.17;100.00;-15917.19;4998804;28;51362;-57
2022/12/21 10:41:34;;;;;;;;;6.67;6.00;;;;;-147.17;100.00;-15917.19;4992352;28;51281;-58
2022/12/21 10:44:00;;;;;;;;;4.67;4.33;;;;;-147.17;100.00;-15917.19;4987126;28;52208;-57
2022/12/21 10:46:31;;;;;;;;;6.00;6.00;;;;;-147.17;100.00;-15917.19;4987633;28;51054;-57
2022/12/21 10:49:01;;;;;;;;;7.33;6.00;;;;;-147.17;100.00;-15917.19;4987920;28;51185;-58
2022/12/21 10:51:34;;;;;;;;;13.00;12.67;;;;;-147.17;100.00;-15917.19;4993503;28;51033;-58
2022/12/21 10:54:02;;;;;;;;;7.33;7.33;;;;;-147.17;100.00;-15917.19;4992799;28;52441;-58
2022/12/21 10:56:30;;;;;;;;;14.25;13.00;;;;;-147.17;100.00;-15917.19;5004354;28;51059;-57
2022/12/21 10:59:05;;;;;;;;;5.00;5.00;;;;;-147.17;100.00;-15917.19;4992480;28;51081;-58
2022/12/21 11:01:33;;;;;;;;;9.00;6.67;;;;;-147.17;100.00;-15917.19;4992360;28;51527;-59
2022/12/21 11:04:31;;;;;;;;;10.00;6.33;;;;;-147.17;100.00;-15917.19;4975600;28;52050;-57
2022/12/21 11:07:09;;;;;;;;;6.00;5.67;;;;;-147.17;100.00;-15917.19;4972050;28;50988;-57
2022/12/21 11:09:39;;;;;;;;;6.00;6.00;;;;;-147.17;100.00;-15917.19;4992378;28;51328;-58
2022/12/21 11:12:22;;;;;;;;;7.00;6.33;;;;;-147.17;100.00;-15917.19;4981024;28;51311;-57
2022/12/21 11:14:52;;;;;;;;;4.67;4.00;;;;;-147.17;100.00;-15917.19;4979780;28;51911;-57
2022/12/21 11:17:27;;;;;;;;;9.00;7.67;;;;;-147.17;100.00;-15917.19;4992412;28;50991;-57
2022/12/21 11:20:06;;;;;;;;;8.67;8.33;;;;;-147.17;100.00;-15917.19;4992830;28;50984;-58
2022/12/21 11:22:32;;;;;;;;;10.00;9.00;;;;;-147.17;100.00;-15917.19;4986572;28;51105;-57
2022/12/21 11:24:59;;;;;;;;;12.33;11.00;;;;;-147.17;100.00;-15917.19;4992477;28;51856;-58
2022/12/21 11:27:33;;;;;;;;;9.00;7.00;;;;;-147.17;100.00;-15917.19;4992832;28;51045;-57